Time;durP1;ratioP1;P1;durP2;ratioP2;P2;SDS_P1;SDS_P2;PMS_P1;PMS_P2;Temp;Humidity;BMP_temperature;BMP_pressure;BME280_temperature;BME280_humidity;BME280_pressure;Samples;Min_cycle;Max_cycle;Signal;HPM_P1;HPM_P2
2022/07/28 00:00:16;;;;;;;2.53;1.80;;;14.20;94.50;;;;;;4996749;28;20461;-75
2022/07/28 00:02:45;;;;;;;3.93;2.30;;;14.10;94.50;;;;;;4979004;28;20514;-75
2022/07/28 00:05:14;;;;;;;4.27;2.07;;;14.10;94.60;;;;;;4996613;28;20938;-75
2022/07/28 00:07:42;;;;;;;3.70;1.83;;;14.10;94.60;;;;;;4996686;28;20510;-75
2022/07/28 00:10:11;;;;;;;3.23;2.00;;;14.00;94.60;;;;;;4995916;28;20444;-75
2022/07/28 00:12:39;;;;;;;3.57;2.10;;;14.00;94.60;;;;;;4995301;28;20857;-75
2022/07/28 00:15:08;;;;;;;3.10;1.50;;;14.00;94.70;;;;;;4995341;28;20435;-75
2022/07/28 00:17:36;;;;;;;5.00;2.20;;;13.90;94.60;;;;;;4996299;28;20457;-75
2022/07/28 00:20:08;;;;;;;3.73;1.80;;;13.90;94.70;;;;;;4996274;28;20491;-75
2022/07/28 00:22:41;;;;;;;3.83;1.90;;;13.90;94.70;;;;;;4978720;28;20830;-75
2022/07/28 00:25:10;;;;;;;2.90;1.73;;;13.80;94.70;;;;;;4978818;28;20503;-75
2022/07/28 00:27:39;;;;;;;3.43;1.73;;;13.80;94.70;;;;;;4996163;28;20482;-75
2022/07/28 00:30:08;;;;;;;4.87;2.50;;;13.80;94.80;;;;;;4978649;28;20551;-75
2022/07/28 00:32:37;;;;;;;4.37;2.30;;;13.70;94.80;;;;;;4978515;28;20481;-75
2022/07/28 00:35:08;;;;;;;4.60;2.00;;;13.70;94.80;;;;;;4978775;28;20874;-75
2022/07/28 00:37:36;;;;;;;3.30;1.90;;;13.70;94.90;;;;;;4978776;28;20445;-74
2022/07/28 00:40:08;;;;;;;4.23;1.90;;;13.60;94.90;;;;;;4978689;28;20839;-75
2022/07/28 00:42:36;;;;;;;5.73;2.30;;;13.60;94.90;;;;;;4996420;28;20868;-75
2022/07/28 00:45:05;;;;;;;4.73;2.00;;;13.50;95.00;;;;;;4995947;28;20444;-75
2022/07/28 00:47:34;;;;;;;3.90;2.80;;;13.50;95.00;;;;;;4978369;28;20459;-75
2022/07/28 00:50:02;;;;;;;4.00;2.20;;;13.50;95.10;;;;;;4978253;28;20463;-75
2022/07/28 00:52:33;;;;;;;6.97;2.57;;;13.50;95.10;;;;;;4995495;28;20516;-75
2022/07/28 00:55:04;;;;;;;3.17;2.37;;;13.40;95.20;;;;;;4978193;28;20894;-75
2022/07/28 00:57:32;;;;;;;3.60;2.10;;;13.40;95.20;;;;;;4978401;28;20848;-75
2022/07/28 01:00:00;;;;;;;3.53;2.43;;;13.40;95.30;;;;;;4977833;28;20448;-75
2022/07/28 01:02:28;;;;;;;4.20;2.70;;;13.40;95.40;;;;;;4994901;28;20458;-74
2022/07/28 01:04:57;;;;;;;5.20;2.57;;;13.30;95.50;;;;;;4995993;28;20926;-74
2022/07/28 01:07:33;;;;;;;3.70;2.53;;;13.30;95.60;;;;;;4995653;28;20506;-75
2022/07/28 01:10:12;;;;;;;4.63;2.63;;;13.30;95.70;;;;;;4977959;28;20448;-75
2022/07/28 01:12:50;;;;;;;3.43;2.77;;;13.20;95.80;;;;;;4995234;28;20476;-75
2022/07/28 01:15:25;;;;;;;4.77;3.03;;;13.20;95.80;;;;;;4994077;28;20539;-75
2022/07/28 01:18:02;;;;;;;3.43;2.90;;;13.20;95.90;;;;;;4995518;28;20457;-75
2022/07/28 01:20:35;;;;;;;5.40;3.00;;;13.20;96.00;;;;;;4977736;28;20440;-75
2022/07/28 01:23:21;;;;;;;4.63;3.20;;;13.10;96.00;;;;;;4977604;28;20504;-75
2022/07/28 01:26:06;;;;;;;4.67;3.03;;;13.10;96.10;;;;;;4977699;28;20548;-75
2022/07/28 01:28:47;;;;;;;4.03;2.30;;;13.10;96.20;;;;;;4977580;28;20448;-75
2022/07/28 01:31:22;;;;;;;4.07;2.77;;;13.10;96.20;;;;;;4995158;28;20859;-75
2022/07/28 01:33:56;;;;;;;3.63;2.87;;;13.10;96.20;;;;;;4994879;28;20506;-75
2022/07/28 01:36:29;;;;;;;3.43;2.60;;;13.00;96.30;;;;;;4977446;28;20430;-75
2022/07/28 01:38:58;;;;;;;3.47;2.77;;;13.00;96.30;;;;;;4993587;28;20440;-75
2022/07/28 01:41:29;;;;;;;4.97;3.17;;;13.00;96.60;;;;;;4995347;28;20476;-75
2022/07/28 01:44:01;;;;;;;3.87;3.27;;;13.00;96.40;;;;;;4993478;28;20519;-75
2022/07/28 01:46:32;;;;;;;7.60;2.67;;;13.00;96.50;;;;;;4995040;28;20927;-75
2022/07/28 01:49:02;;;;;;;4.40;2.70;;;13.00;96.60;;;;;;4994695;28;20432;-75
2022/07/28 01:51:33;;;;;;;7.20;3.27;;;12.90;96.60;;;;;;4994530;28;20495;-75
2022/07/28 01:54:02;;;;;;;6.30;2.90;;;12.90;96.70;;;;;;4994816;28;20463;-75
2022/07/28 01:56:33;;;;;;;4.93;3.20;;;12.90;96.70;;;;;;4977245;28;20544;-75
2022/07/28 01:59:08;;;;;;;4.43;2.53;;;12.90;96.80;;;;;;4977280;28;20540;-75
2022/07/28 02:01:43;;;;;;;3.53;2.80;;;12.90;96.90;;;;;;4994456;28;20456;-75
2022/07/28 02:04:12;;;;;;;4.00;3.30;;;12.90;97.00;;;;;;4994620;28;20463;-75
2022/07/28 02:06:43;;;;;;;6.07;4.13;;;12.90;97.00;;;;;;4994319;28;20475;-75
2022/07/28 02:09:12;;;;;;;6.03;2.97;;;12.80;97.10;;;;;;4994917;28;20421;-75
2022/07/28 02:11:41;;;;;;;3.50;2.80;;;12.80;97.40;;;;;;4994220;28;20547;-75
2022/07/28 02:14:12;;;;;;;4.70;2.90;;;12.80;97.20;;;;;;4994139;28;20985;-75
2022/07/28 02:16:47;;;;;;;4.20;2.73;;;12.80;97.30;;;;;;4994501;28;20437;-75
2022/07/28 02:19:18;;;;;;;5.47;3.33;;;12.80;97.30;;;;;;4992999;28;20882;-75
2022/07/28 02:21:48;;;;;;;5.13;2.37;;;12.80;97.30;;;;;;4976719;28;20823;-75
2022/07/28 02:24:19;;;;;;;5.93;3.00;;;12.80;97.30;;;;;;4976598;28;20475;-75
2022/07/28 02:26:52;;;;;;;5.40;3.10;;;12.70;97.30;;;;;;4976658;28;20463;-75
2022/07/28 02:29:23;;;;;;;4.67;2.97;;;12.70;97.40;;;;;;4976624;28;20938;-75
2022/07/28 02:32:18;;;;;;;2.97;2.63;;;12.70;97.50;;;;;;4994282;28;20471;-75
2022/07/28 02:35:02;;;;;;;4.20;3.20;;;12.70;97.50;;;;;;4992918;28;20624;-75
2022/07/28 02:37:37;;;;;;;4.40;3.27;;;12.60;97.50;;;;;;4994355;28;20862;-75
2022/07/28 02:40:09;;;;;;;4.13;3.30;;;12.60;97.60;;;;;;4994279;28;20425;-75
2022/07/28 02:42:40;;;;;;;6.60;2.73;;;12.60;97.60;;;;;;4976397;28;20465;-75
2022/07/28 02:45:11;;;;;;;5.50;3.13;;;12.60;97.70;;;;;;4993908;28;20472;-75
2022/07/28 02:47:48;;;;;;;4.80;3.30;;;12.60;97.80;;;;;;4992590;28;20441;-75
2022/07/28 02:50:21;;;;;;;3.40;2.57;;;12.60;97.90;;;;;;4976408;28;20488;-75
2022/07/28 02:52:52;;;;;;;4.53;2.87;;;12.60;98.00;;;;;;4993755;28;20861;-75
2022/07/28 02:55:21;;;;;;;5.90;3.67;;;12.60;98.00;;;;;;4994099;28;20533;-75
2022/07/28 02:57:50;;;;;;;4.63;3.20;;;12.60;98.10;;;;;;4976299;28;20946;-75
2022/07/28 03:00:24;;;;;;;4.53;3.17;;;12.60;98.10;;;;;;4994527;28;20446;-75
2022/07/28 03:02:55;;;;;;;5.73;3.20;;;12.60;98.20;;;;;;4993699;28;20504;-75
2022/07/28 03:05:23;;;;;;;3.97;2.90;;;12.50;98.20;;;;;;4993767;28;20432;-75
2022/07/28 03:07:52;;;;;;;4.83;3.00;;;12.60;98.40;;;;;;4993973;28;20458;-75
2022/07/28 03:10:24;;;;;;;7.03;3.47;;;12.60;98.40;;;;;;4993660;28;20433;-75
2022/07/28 03:13:02;;;;;;;4.00;3.20;;;12.60;98.60;;;;;;4976156;28;21009;-75
2022/07/28 03:15:30;;;;;;;5.50;3.30;;;12.60;98.60;;;;;;4993683;28;20472;-75
2022/07/28 03:18:00;;;;;;;4.27;3.03;;;12.50;98.70;;;;;;4993597;28;20447;-75
2022/07/28 03:20:29;;;;;;;5.97;3.70;;;12.60;98.80;;;;;;4994143;28;20468;-75
2022/07/28 03:22:58;;;;;;;5.40;3.40;;;12.60;98.90;;;;;;4993804;28;20540;-75
2022/07/28 03:25:29;;;;;;;5.17;3.10;;;12.60;99.00;;;;;;4996712;28;20479;-75
2022/07/28 03:28:00;;;;;;;5.17;3.30;;;12.60;99.00;;;;;;4998010;28;20925;-75
2022/07/28 03:30:34;;;;;;;5.10;3.40;;;12.60;99.10;;;;;;4980037;28;20460;-75
2022/07/28 03:33:04;;;;;;;3.70;3.23;;;12.60;99.20;;;;;;4979752;28;20486;-75
2022/07/28 03:35:33;;;;;;;5.10;3.30;;;12.60;99.20;;;;;;4997274;28;20437;-75
2022/07/28 03:38:07;;;;;;;6.83;3.77;;;12.60;99.30;;;;;;4979976;28;20478;-75
2022/07/28 03:40:37;;;;;;;6.97;3.57;;;12.60;99.40;;;;;;4997363;28;20435;-75
2022/07/28 03:43:08;;;;;;;5.73;3.87;;;12.70;99.50;;;;;;4997572;28;20582;-75
2022/07/28 03:45:37;;;;;;;3.80;3.40;;;12.70;99.80;;;;;;4997287;28;20420;-75
2022/07/28 03:48:10;;;;;;;6.17;3.50;;;12.70;99.60;;;;;;4979451;28;20436;-75
2022/07/28 03:50:38;;;;;;;5.03;3.70;;;12.70;99.70;;;;;;4996834;28;20432;-75
2022/07/28 03:53:22;;;;;;;4.27;3.70;;;12.70;99.70;;;;;;4979776;28;20500;-75
2022/07/28 03:55:50;;;;;;;5.80;4.50;;;12.70;99.80;;;;;;4979618;28;20451;-75
2022/07/28 03:58:19;;;;;;;8.10;3.90;;;12.70;99.80;;;;;;4996675;28;20472;-75
2022/07/28 04:00:48;;;;;;;4.57;3.40;;;12.80;99.90;;;;;;4978963;28;20449;-75
2022/07/28 04:03:18;;;;;;;4.90;3.63;;;12.80;99.90;;;;;;4996887;28;20543;-76
2022/07/28 04:06:06;;;;;;;5.87;4.07;;;12.80;99.90;;;;;;4979284;28;20441;-75
2022/07/28 04:08:34;;;;;;;5.60;3.33;;;12.80;99.90;;;;;;4979023;28;20451;-75
2022/07/28 04:11:03;;;;;;;3.87;3.07;;;12.80;99.90;;;;;;4996564;28;20429;-75
2022/07/28 04:13:31;;;;;;;5.40;3.37;;;12.90;99.90;;;;;;4996432;28;20515;-75
2022/07/28 04:16:00;;;;;;;4.13;3.73;;;12.90;99.90;;;;;;4996919;28;20494;-75
2022/07/28 04:18:29;;;;;;;4.83;4.10;;;12.90;99.90;;;;;;4996520;28;20464;-75
2022/07/28 04:20:57;;;;;;;5.03;3.53;;;12.90;99.90;;;;;;4996562;28;20443;-75
2022/07/28 04:23:26;;;;;;;4.60;3.50;;;12.90;99.90;;;;;;4978923;28;21076;-75
2022/07/28 04:25:54;;;;;;;4.20;3.63;;;13.00;99.90;;;;;;4996169;28;20960;-75
2022/07/28 04:28:23;;;;;;;6.10;3.17;;;13.00;99.90;;;;;;4978732;28;20445;-75
2022/07/28 04:30:51;;;;;;;5.30;3.20;;;13.00;99.90;;;;;;4996413;28;20440;-75
2022/07/28 04:33:19;;;;;;;6.43;3.90;;;13.00;99.90;;;;;;4978490;28;20447;-75
2022/07/28 04:35:51;;;;;;;7.40;3.30;;;13.10;99.90;;;;;;4995833;28;20799;-75
2022/07/28 04:38:19;;;;;;;5.63;2.80;;;13.10;99.90;;;;;;4994825;28;20441;-75
2022/07/28 04:40:48;;;;;;;4.10;3.47;;;13.10;99.90;;;;;;4995936;28;20873;-75
2022/07/28 04:43:16;;;;;;;4.73;3.00;;;13.10;99.90;;;;;;4995903;28;20881;-76
2022/07/28 04:45:45;;;;;;;4.10;3.20;;;13.10;99.90;;;;;;4978423;28;20503;-75
2022/07/28 04:48:22;;;;;;;4.50;3.60;;;13.10;99.90;;;;;;4995751;28;20899;-75
2022/07/28 04:50:52;;;;;;;5.67;3.20;;;13.10;99.90;;;;;;4996066;28;20440;-75
2022/07/28 04:53:21;;;;;;;4.20;2.97;;;13.20;99.90;;;;;;4995731;28;20479;-77
2022/07/28 04:55:51;;;;;;;5.60;3.27;;;13.20;99.90;;;;;;4995713;28;20433;-75
2022/07/28 04:58:22;;;;;;;6.40;3.50;;;13.20;99.90;;;;;;4996020;28;20425;-75
2022/07/28 05:00:51;;;;;;;4.43;3.23;;;13.30;99.90;;;;;;4978065;28;21077;-75
2022/07/28 05:03:20;;;;;;;3.33;2.20;;;13.30;99.90;;;;;;4995498;28;20467;-75
2022/07/28 05:05:55;;;;;;;4.77;3.57;;;13.30;99.90;;;;;;4995490;28;20454;-76
2022/07/28 05:08:33;;;;;;;4.93;3.60;;;13.30;99.90;;;;;;4994304;28;20492;-76
2022/07/28 05:11:01;;;;;;;3.67;3.10;;;13.40;99.90;;;;;;4978060;28;20456;-76
2022/07/28 05:13:29;;;;;;;4.13;3.10;;;13.40;99.90;;;;;;4995085;28;20480;-76
2022/07/28 05:16:02;;;;;;;11.40;3.33;;;13.50;99.90;;;;;;4995402;28;20429;-77
2022/07/28 05:18:30;;;;;;;4.50;3.17;;;13.50;99.90;;;;;;4995433;28;20821;-76
2022/07/28 05:21:00;;;;;;;5.77;3.70;;;13.50;99.90;;;;;;4977789;28;20874;-76
2022/07/28 05:23:28;;;;;;;4.80;3.70;;;13.50;99.90;;;;;;4995104;28;20457;-76
2022/07/28 05:25:56;;;;;;;4.80;3.27;;;13.60;99.90;;;;;;4995067;28;20828;-76
2022/07/28 05:28:25;;;;;;;4.30;3.40;;;13.60;99.90;;;;;;4995371;28;20543;-77
2022/07/28 05:30:54;;;;;;;5.77;3.30;;;13.70;99.90;;;;;;4995394;28;20871;-76
2022/07/28 05:33:23;;;;;;;4.77;3.30;;;13.80;99.90;;;;;;4977418;28;20848;-77
2022/07/28 05:36:00;;;;;;;5.03;2.93;;;13.80;99.90;;;;;;4994937;28;20476;-77
2022/07/28 05:38:29;;;;;;;7.23;3.80;;;13.90;99.90;;;;;;4978030;28;20461;-76
2022/07/28 05:40:57;;;;;;;4.43;2.70;;;13.90;99.90;;;;;;4977489;28;20527;-77
2022/07/28 05:43:26;;;;;;;6.00;3.43;;;14.00;99.90;;;;;;4977384;28;20563;-76
2022/07/28 05:45:54;;;;;;;3.43;2.67;;;14.00;99.90;;;;;;4977544;28;20448;-76
2022/07/28 05:48:22;;;;;;;4.70;3.00;;;14.10;99.90;;;;;;4977343;28;20484;-76
2022/07/28 05:50:53;;;;;;;6.47;3.37;;;14.10;99.90;;;;;;4977378;28;20451;-76
2022/07/28 05:53:23;;;;;;;3.90;2.70;;;14.20;99.90;;;;;;4977099;28;20509;-77
2022/07/28 05:55:51;;;;;;;4.97;2.80;;;14.20;99.90;;;;;;4994958;28;20433;-76
2022/07/28 05:58:28;;;;;;;5.83;3.70;;;14.20;99.90;;;;;;4977286;28;20540;-77
2022/07/28 06:00:58;;;;;;;3.93;2.37;;;14.30;99.90;;;;;;4993199;28;20481;-76
2022/07/28 06:03:27;;;;;;;3.20;2.30;;;14.40;99.90;;;;;;4977169;28;20550;-77
2022/07/28 06:05:55;;;;;;;3.40;2.70;;;14.50;99.90;;;;;;4994669;28;20462;-76
2022/07/28 06:08:45;;;;;;;4.00;3.00;;;14.60;99.90;;;;;;4977499;28;20531;-77
2022/07/28 06:11:15;;;;;;;3.63;2.27;;;14.70;99.90;;;;;;4994974;28;20422;-77
2022/07/28 06:13:49;;;;;;;6.33;1.90;;;14.80;99.90;;;;;;4994623;28;20479;-77
2022/07/28 06:16:19;;;;;;;5.33;2.33;;;14.80;99.90;;;;;;4994441;28;20428;-77
2022/07/28 06:18:47;;;;;;;5.43;2.80;;;14.90;99.90;;;;;;4976883;28;20459;-77
2022/07/28 06:21:16;;;;;;;3.30;2.33;;;14.90;99.90;;;;;;4994513;28;20981;-76
2022/07/28 06:23:46;;;;;;;5.13;2.67;;;14.90;99.90;;;;;;4976731;28;20463;-77
2022/07/28 06:26:14;;;;;;;4.77;3.10;;;15.00;99.90;;;;;;4994187;28;20532;-77
2022/07/28 06:28:42;;;;;;;4.40;2.20;;;15.10;99.90;;;;;;4994167;28;20436;-76
2022/07/28 06:31:10;;;;;;;4.40;2.20;;;15.20;99.90;;;;;;4994063;28;20451;-76
2022/07/28 06:33:38;;;;;;;4.00;2.53;;;15.20;99.90;;;;;;4976459;28;20443;-77
2022/07/28 06:36:07;;;;;;;3.00;2.33;;;15.30;99.90;;;;;;4994022;28;20495;-76
2022/07/28 06:38:36;;;;;;;7.03;2.30;;;15.40;99.90;;;;;;4994297;28;20423;-76
2022/07/28 06:41:05;;;;;;;5.23;2.57;;;15.50;99.90;;;;;;4976823;28;20452;-76
2022/07/28 06:43:33;;;;;;;4.40;2.40;;;15.90;99.90;;;;;;4976499;28;20458;-77
2022/07/28 06:46:07;;;;;;;4.30;2.37;;;16.20;99.90;;;;;;4993946;28;20425;-77
2022/07/28 06:48:36;;;;;;;3.60;2.50;;;16.50;99.90;;;;;;4993921;28;20976;-77
2022/07/28 06:51:05;;;;;;;4.07;2.50;;;16.60;99.90;;;;;;4976602;28;20456;-77
2022/07/28 06:53:34;;;;;;;4.87;2.57;;;16.90;99.90;;;;;;4994236;28;20447;-77
2022/07/28 06:56:05;;;;;;;3.13;1.70;;;17.10;99.90;;;;;;4994070;28;20407;-77
2022/07/28 06:58:34;;;;;;;3.83;1.60;;;17.10;99.90;;;;;;4995967;28;20404;-77
2022/07/28 07:01:06;;;;;;;5.50;1.53;;;17.20;99.90;;;;;;4998010;28;20460;-77
2022/07/28 07:03:35;;;;;;;2.90;1.47;;;17.30;99.90;;;;;;4980367;28;21011;-77
2022/07/28 07:06:03;;;;;;;2.77;1.67;;;17.40;99.90;;;;;;4980531;28;20461;-77
2022/07/28 07:08:32;;;;;;;3.73;1.47;;;17.50;99.90;;;;;;4998081;28;20430;-77
2022/07/28 07:11:00;;;;;;;4.00;1.60;;;17.70;99.90;;;;;;4980815;28;20456;-77
2022/07/28 07:13:31;;;;;;;3.30;1.60;;;17.90;99.90;;;;;;4997823;28;20550;-77
2022/07/28 07:16:00;;;;;;;2.60;1.10;;;18.10;99.90;;;;;;4997552;28;20487;-79
2022/07/28 07:18:28;;;;;;;5.90;1.27;;;18.10;99.90;;;;;;4998044;28;20440;-77
2022/07/28 07:20:57;;;;;;;2.43;1.27;;;18.20;99.90;;;;;;4997977;28;20440;-77
2022/07/28 07:23:26;;;;;;;4.80;1.60;;;18.30;99.40;;;;;;4997996;28;20535;-77
2022/07/28 07:25:54;;;;;;;2.80;1.30;;;18.30;99.10;;;;;;4997860;28;20471;-77
2022/07/28 07:28:22;;;;;;;3.90;1.40;;;18.40;98.90;;;;;;4980038;28;20459;-78
2022/07/28 07:30:52;;;;;;;3.00;1.27;;;18.50;98.70;;;;;;4997558;28;20480;-78
2022/07/28 07:33:20;;;;;;;2.57;1.40;;;18.50;98.40;;;;;;4997268;28;20456;-77
2022/07/28 07:35:48;;;;;;;4.50;1.80;;;18.60;98.20;;;;;;4997505;28;20874;-77
2022/07/28 07:38:17;;;;;;;2.10;1.20;;;18.60;97.90;;;;;;4979895;28;20530;-77
2022/07/28 07:40:45;;;;;;;3.23;1.07;;;18.60;97.80;;;;;;4979990;28;20453;-77
2022/07/28 07:43:13;;;;;;;2.80;1.40;;;18.70;97.70;;;;;;4979498;28;20831;-77
2022/07/28 07:45:42;;;;;;;3.30;1.13;;;18.70;97.60;;;;;;4997148;28;20472;-77
2022/07/28 07:48:11;;;;;;;3.13;1.10;;;18.80;97.50;;;;;;4979437;28;20484;-77
2022/07/28 07:50:39;;;;;;;6.00;2.47;;;18.80;97.30;;;;;;4995772;28;20472;-79
2022/07/28 07:53:08;;;;;;;2.37;1.20;;;18.90;97.20;;;;;;4997089;28;20460;-77
2022/07/28 07:55:37;;;;;;;3.33;1.50;;;18.90;97.00;;;;;;4996870;28;20469;-77
2022/07/28 07:58:06;;;;;;;2.57;1.30;;;18.80;97.30;;;;;;4979394;28;20452;-77
2022/07/28 08:00:34;;;;;;;2.63;1.37;;;18.90;96.90;;;;;;4979281;28;20441;-77
2022/07/28 08:03:03;;;;;;;5.17;2.00;;;18.90;96.70;;;;;;4979319;28;20475;-77
2022/07/28 08:05:39;;;;;;;1.90;0.93;;;18.90;96.80;;;;;;4979544;28;20531;-77
2022/07/28 08:08:09;;;;;;;8.50;1.70;;;18.90;96.60;;;;;;4997720;28;20504;-77
2022/07/28 08:10:38;;;;;;;3.37;1.33;;;18.80;96.30;;;;;;4997022;28;20451;-78
2022/07/28 08:13:07;;;;;;;2.33;1.30;;;18.80;96.20;;;;;;4980318;28;20469;-77
2022/07/28 08:15:35;;;;;;;3.93;1.50;;;18.80;96.20;;;;;;4997577;28;20472;-78
2022/07/28 08:18:04;;;;;;;3.00;1.20;;;18.80;96.20;;;;;;4997306;28;20922;-78
2022/07/28 08:20:32;;;;;;;3.30;1.53;;;18.80;96.10;;;;;;4979093;28;20950;-77
2022/07/28 08:23:02;;;;;;;3.00;1.10;;;18.90;96.10;;;;;;4979375;28;20519;-77
2022/07/28 08:25:30;;;;;;;2.50;1.20;;;19.00;96.10;;;;;;4979258;28;20472;-78
2022/07/28 08:27:59;;;;;;;3.97;1.33;;;19.00;96.00;;;;;;4996362;28;20449;-77
2022/07/28 08:30:28;;;;;;;3.77;1.67;;;19.00;95.90;;;;;;4996568;28;20444;-77
2022/07/28 08:33:01;;;;;;;2.40;1.40;;;19.10;95.80;;;;;;4996816;28;20468;-77
2022/07/28 08:35:30;;;;;;;2.80;1.20;;;19.10;95.60;;;;;;4978687;28;21015;-77
2022/07/28 08:38:04;;;;;;;4.60;1.43;;;19.20;95.60;;;;;;4996769;28;20445;-77
2022/07/28 08:40:32;;;;;;;4.23;1.27;;;19.20;95.40;;;;;;4995023;28;20460;-77
2022/07/28 08:43:08;;;;;;;3.07;1.37;;;19.20;95.30;;;;;;4996024;28;20547;-77
2022/07/28 08:45:39;;;;;;;2.63;1.10;;;19.20;95.00;;;;;;4996235;28;20887;-77
2022/07/28 08:48:11;;;;;;;7.67;1.77;;;19.20;94.80;;;;;;4996020;28;20846;-77
2022/07/28 08:50:41;;;;;;;2.20;1.00;;;19.20;94.70;;;;;;4978390;28;20505;-77
2022/07/28 08:53:11;;;;;;;3.90;1.50;;;19.20;94.60;;;;;;4978390;28;20515;-77
2022/07/28 08:55:39;;;;;;;4.17;1.20;;;19.20;94.60;;;;;;4995739;28;20496;-77
2022/07/28 08:58:08;;;;;;;2.23;0.90;;;19.20;94.50;;;;;;4978268;28;20445;-77
2022/07/28 09:00:36;;;;;;;3.03;1.20;;;19.30;94.50;;;;;;4995638;28;20445;-77
2022/07/28 09:03:06;;;;;;;3.73;1.10;;;19.30;94.30;;;;;;4978854;28;21036;-77
2022/07/28 09:05:35;;;;;;;3.13;1.07;;;19.30;94.10;;;;;;4996366;28;20441;-77
2022/07/28 09:08:05;;;;;;;2.93;1.20;;;19.30;94.10;;;;;;4978331;28;20981;-76
2022/07/28 09:10:34;;;;;;;3.23;1.50;;;19.40;94.00;;;;;;4978573;28;20456;-77
2022/07/28 09:13:03;;;;;;;4.07;1.37;;;19.40;94.10;;;;;;4978274;28;20465;-77
2022/07/28 09:15:33;;;;;;;4.40;1.30;;;19.50;94.10;;;;;;4995844;28;20526;-77
2022/07/28 09:18:02;;;;;;;2.10;1.10;;;19.60;94.10;;;;;;4995853;28;20953;-77
2022/07/28 09:20:31;;;;;;;1.93;1.17;;;19.70;94.10;;;;;;4995808;28;20877;-77
2022/07/28 09:23:00;;;;;;;2.37;1.10;;;19.80;93.90;;;;;;4994733;28;20822;-77
2022/07/28 09:25:30;;;;;;;4.10;1.30;;;19.90;93.80;;;;;;4977899;28;20472;-77
2022/07/28 09:28:07;;;;;;;3.40;1.30;;;19.90;93.60;;;;;;4977754;28;20553;-77
2022/07/28 09:30:39;;;;;;;2.57;1.30;;;20.00;93.40;;;;;;4995130;28;20516;-77
2022/07/28 09:33:23;;;;;;;2.00;1.17;;;20.00;93.40;;;;;;4995472;28;20460;-78
2022/07/28 09:36:15;;;;;;;2.20;1.23;;;20.10;93.20;;;;;;4995087;28;20463;-78
2022/07/28 09:38:44;;;;;;;3.03;1.63;;;20.10;93.10;;;;;;4977700;28;20440;-77
2022/07/28 09:41:13;;;;;;;3.50;1.40;;;20.20;93.00;;;;;;4977634;28;20472;-78
2022/07/28 09:43:44;;;;;;;4.50;1.23;;;20.20;92.90;;;;;;4995164;28;20463;-77
2022/07/28 09:46:21;;;;;;;4.00;1.87;;;20.30;92.80;;;;;;4977539;28;20448;-78
2022/07/28 09:48:53;;;;;;;3.60;1.77;;;20.50;92.80;;;;;;4996124;28;20428;-78
2022/07/28 09:51:24;;;;;;;3.20;1.60;;;20.60;92.80;;;;;;4995723;28;20429;-78
2022/07/28 09:53:53;;;;;;;2.67;1.00;;;20.70;92.70;;;;;;4995558;28;20539;-78
2022/07/28 09:56:24;;;;;;;4.67;1.60;;;20.80;92.50;;;;;;4995010;28;20483;-78
2022/07/28 09:58:56;;;;;;;2.63;1.40;;;21.00;92.60;;;;;;4995340;28;20445;-77
2022/07/28 10:01:26;;;;;;;2.60;1.17;;;21.20;92.30;;;;;;4995756;28;20880;-78
2022/07/28 10:04:04;;;;;;;2.53;1.40;;;21.30;92.10;;;;;;4993545;28;20464;-79
2022/07/28 10:06:36;;;;;;;6.50;1.60;;;21.40;91.90;;;;;;4994934;28;20445;-77
2022/07/28 10:09:06;;;;;;;2.10;1.30;;;21.50;91.70;;;;;;4994576;28;20455;-77
2022/07/28 10:11:34;;;;;;;3.70;1.60;;;21.50;91.60;;;;;;4994417;28;20456;-77
2022/07/28 10:14:12;;;;;;;4.13;1.60;;;21.60;91.30;;;;;;4976830;28;20468;-77
2022/07/28 10:16:45;;;;;;;3.50;1.70;;;21.60;91.30;;;;;;4994499;28;20452;-76
2022/07/28 10:19:13;;;;;;;5.20;1.90;;;21.60;91.20;;;;;;4994637;28;20512;-76
2022/07/28 10:21:44;;;;;;;3.73;2.00;;;21.60;91.20;;;;;;4994464;28;20448;-75
2022/07/28 10:24:21;;;;;;;2.50;1.43;;;21.60;91.20;;;;;;4994103;28;20461;-74
2022/07/28 10:26:52;;;;;;;3.33;1.80;;;21.70;91.40;;;;;;4976723;28;20437;-74
2022/07/28 10:29:23;;;;;;;5.37;1.70;;;21.80;90.90;;;;;;4994382;28;20420;-75
2022/07/28 10:31:54;;;;;;;3.83;1.80;;;21.90;90.50;;;;;;4994080;28;20425;-74
2022/07/28 10:34:25;;;;;;;3.60;1.97;;;21.90;90.10;;;;;;4976372;28;20568;-74
2022/07/28 10:36:55;;;;;;;3.50;1.90;;;21.90;90.00;;;;;;4994274;28;20846;-75
2022/07/28 10:39:28;;;;;;;4.13;1.90;;;22.00;89.80;;;;;;4994330;28;20428;-75
2022/07/28 10:41:57;;;;;;;6.80;2.43;;;22.10;89.80;;;;;;4994050;28;20801;-75
2022/07/28 10:44:28;;;;;;;2.97;1.60;;;22.10;89.60;;;;;;4994008;28;20469;-74
2022/07/28 10:46:57;;;;;;;2.90;1.70;;;22.20;89.90;;;;;;4993903;28;20424;-74
2022/07/28 10:49:28;;;;;;;3.87;2.00;;;22.30;89.40;;;;;;4994146;28;20899;-74
2022/07/28 10:52:00;;;;;;;5.40;2.13;;;22.30;89.10;;;;;;4994124;28;20425;-75
2022/07/28 10:54:45;;;;;;;3.13;1.70;;;22.30;88.70;;;;;;4976592;28;20445;-76
2022/07/28 10:57:16;;;;;;;3.90;1.73;;;22.30;88.00;;;;;;4993802;28;20456;-76
2022/07/28 11:00:01;;;;;;;2.60;1.70;;;22.30;87.70;;;;;;4976437;28;20464;-75
2022/07/28 11:02:49;;;;;;;4.63;1.70;;;22.30;87.00;;;;;;4993676;28;20473;-76
2022/07/28 11:05:32;;;;;;;5.20;2.50;;;22.20;86.70;;;;;;4993821;28;20787;-75
2022/07/28 11:08:02;;;;;;;3.10;2.10;;;22.20;86.60;;;;;;4976381;28;20449;-75
2022/07/28 11:10:46;;;;;;;3.53;2.10;;;22.20;86.80;;;;;;4976370;28;20927;-75
2022/07/28 11:13:27;;;;;;;3.33;1.63;;;22.20;86.50;;;;;;4976256;28;20574;-75
2022/07/28 11:15:58;;;;;;;7.00;1.90;;;22.30;86.50;;;;;;4976270;28;20810;-75
2022/07/28 11:18:28;;;;;;;3.50;2.17;;;22.30;86.50;;;;;;4976246;28;20444;-76
2022/07/28 11:21:09;;;;;;;3.93;1.90;;;22.30;86.10;;;;;;4976263;28;20449;-76
2022/07/28 11:23:54;;;;;;;2.27;1.63;;;22.40;86.50;;;;;;4993695;28;20807;-75
2022/07/28 11:26:34;;;;;;;3.87;1.67;;;22.40;85.70;;;;;;4993763;28;20421;-76
2022/07/28 11:29:20;;;;;;;3.77;2.07;;;22.40;85.80;;;;;;4976469;28;20499;-75
2022/07/28 11:32:03;;;;;;;3.80;2.00;;;22.50;85.90;;;;;;4993851;28;20429;-75
2022/07/28 11:35:17;;;;;;;3.57;2.00;;;22.50;85.90;;;;;;4993536;28;20449;-75
2022/07/28 11:38:11;;;;;;;5.70;1.83;;;22.60;86.20;;;;;;4975957;28;20475;-75
2022/07/28 11:40:42;;;;;;;2.60;1.60;;;22.60;86.30;;;;;;4985103;28;20456;-75
2022/07/28 11:43:35;;;;;;;5.07;1.47;;;22.70;86.30;;;;;;4993706;28;20547;-76
2022/07/28 11:46:34;;;;;;;3.50;1.60;;;22.80;85.60;;;;;;4995706;28;20786;-75
2022/07/28 11:49:18;;;;;;;2.70;1.87;;;22.80;85.10;;;;;;4997209;28;20429;-75
2022/07/28 11:52:15;;;;;;;3.40;2.37;;;22.70;85.20;;;;;;4997066;28;20425;-75
2022/07/28 11:54:53;;;;;;;3.00;1.57;;;22.70;85.10;;;;;;4997045;28;20957;-75
2022/07/28 11:57:26;;;;;;;4.27;1.90;;;22.60;84.80;;;;;;4997015;28;20523;-75
2022/07/28 12:00:05;;;;;;;3.07;2.03;;;22.60;84.50;;;;;;4997068;28;20421;-75
2022/07/28 12:02:35;;;;;;;2.60;1.40;;;22.60;84.40;;;;;;4996600;28;21020;-75
2022/07/28 12:05:11;;;;;;;3.10;1.70;;;22.70;84.50;;;;;;4979243;28;20476;-75
2022/07/28 12:07:45;;;;;;;2.50;1.50;;;22.70;84.30;;;;;;4996671;28;20782;-75
2022/07/28 12:10:33;;;;;;;2.10;1.47;;;22.70;84.00;;;;;;4996742;28;20830;-76
2022/07/28 12:13:27;;;;;;;2.20;1.20;;;22.80;83.60;;;;;;4978929;28;20487;-75
2022/07/28 12:15:55;;;;;;;3.90;1.53;;;22.70;83.50;;;;;;4979019;28;20444;-75
2022/07/28 12:18:23;;;;;;;3.43;1.93;;;22.60;83.40;;;;;;4978842;28;20566;-75
2022/07/28 12:20:54;;;;;;;3.20;1.37;;;22.60;83.10;;;;;;4997009;28;20451;-75
2022/07/28 12:23:30;;;;;;;4.63;1.73;;;22.60;83.10;;;;;;4996668;28;20548;-75
2022/07/28 12:26:28;;;;;;;3.03;1.73;;;22.60;83.10;;;;;;4996467;28;20453;-74
2022/07/28 12:28:58;;;;;;;2.33;1.50;;;22.60;83.30;;;;;;4996607;28;20421;-74
2022/07/28 12:31:31;;;;;;;3.90;1.60;;;22.70;83.50;;;;;;4978849;28;20854;-75
2022/07/28 12:34:00;;;;;;;3.30;1.40;;;22.80;83.70;;;;;;4996187;28;20457;-75
2022/07/28 12:36:30;;;;;;;6.30;1.50;;;22.80;83.10;;;;;;4978657;28;20551;-75
2022/07/28 12:38:59;;;;;;;2.90;1.63;;;22.80;82.90;;;;;;4996363;28;20437;-75
2022/07/28 12:41:32;;;;;;;3.93;1.47;;;22.80;82.60;;;;;;4996703;28;20445;-75
2022/07/28 12:44:02;;;;;;;2.43;2.03;;;22.80;82.60;;;;;;4996233;28;20461;-75
2022/07/28 12:46:33;;;;;;;2.33;1.50;;;22.80;82.60;;;;;;4996568;28;20883;-75
2022/07/28 12:49:02;;;;;;;3.90;1.60;;;22.80;82.40;;;;;;4995877;28;20798;-74
2022/07/28 12:51:33;;;;;;;3.87;1.50;;;22.80;82.10;;;;;;4996100;28;20523;-74
2022/07/28 12:54:03;;;;;;;3.17;1.50;;;22.80;82.00;;;;;;4996094;28;20515;-75
2022/07/28 12:56:31;;;;;;;3.40;1.50;;;22.80;81.90;;;;;;4995936;28;20493;-75
2022/07/28 12:59:07;;;;;;;4.33;1.53;;;22.90;81.80;;;;;;4996184;28;20545;-75
2022/07/28 13:01:49;;;;;;;2.77;1.50;;;22.90;81.70;;;;;;4996285;28;20452;-75
2022/07/28 13:04:38;;;;;;;3.63;1.63;;;22.90;81.50;;;;;;4996097;28;20467;-75
2022/07/28 13:07:12;;;;;;;3.20;1.63;;;22.90;81.60;;;;;;4978677;28;20433;-75
2022/07/28 13:09:45;;;;;;;3.30;1.53;;;23.00;81.80;;;;;;4996078;28;20449;-74
2022/07/28 13:12:29;;;;;;;3.60;1.70;;;23.00;81.50;;;;;;4995813;28;20865;-75